Time;durP1;ratioP1;P1;durP2;ratioP2;P2;SDS_P1;SDS_P2;PMS_P1;PMS_P2;Temp;Humidity;BMP_temperature;BMP_pressure;BME280_temperature;BME280_humidity;BME280_pressure;Samples;Min_cycle;Max_cycle;Signal;HPM_P1;HPM_P2
2023/07/26 00:01:04;;;;;;;4.50;2.00;;;15.10;99.90;;;;;;6270151;22;20023;-71
2023/07/26 00:03:29;;;;;;;2.95;1.88;;;15.00;99.90;;;;;;6270315;22;20035;-71
2023/07/26 00:05:55;;;;;;;3.13;2.05;;;15.00;99.90;;;;;;6269900;22;20024;-71
2023/07/26 00:08:21;;;;;;;7.53;2.00;;;15.00;99.90;;;;;;6271772;22;20021;-71
2023/07/26 00:10:47;;;;;;;7.07;2.35;;;15.00;99.90;;;;;;6269697;22;20424;-71
2023/07/26 00:13:15;;;;;;;4.97;2.17;;;15.10;99.90;;;;;;6271528;22;20015;-71
2023/07/26 00:15:41;;;;;;;2.58;2.05;;;15.00;99.90;;;;;;6269808;22;20114;-70
2023/07/26 00:18:07;;;;;;;3.92;2.13;;;14.90;99.90;;;;;;6269593;22;20458;-71
2023/07/26 00:20:33;;;;;;;4.07;2.10;;;15.00;99.90;;;;;;6243712;22;20132;-71
2023/07/26 00:22:59;;;;;;;4.80;2.42;;;15.00;99.90;;;;;;6270138;22;20019;-71
2023/07/26 00:25:25;;;;;;;2.47;1.80;;;15.00;99.90;;;;;;6269267;22;20710;-71
2023/07/26 00:27:51;;;;;;;2.78;1.90;;;15.00;99.90;;;;;;6269161;22;20020;-71
2023/07/26 00:30:16;;;;;;;3.55;2.00;;;15.00;99.90;;;;;;6269365;22;20024;-71
2023/07/26 00:32:42;;;;;;;4.50;1.85;;;15.00;99.90;;;;;;6269700;22;20012;-71
2023/07/26 00:35:08;;;;;;;3.08;2.17;;;15.00;99.90;;;;;;6244285;22;20011;-71
2023/07/26 00:37:34;;;;;;;2.17;1.98;;;15.00;99.90;;;;;;6244107;22;20024;-70
2023/07/26 00:40:00;;;;;;;5.68;2.30;;;15.00;99.90;;;;;;6269875;22;20352;-71
2023/07/26 00:42:25;;;;;;;3.42;1.92;;;15.00;99.90;;;;;;6271580;22;20015;-71
2023/07/26 00:44:51;;;;;;;3.80;2.50;;;15.00;99.90;;;;;;6270250;22;20020;-71
2023/07/26 00:47:17;;;;;;;3.53;2.40;;;15.00;99.90;;;;;;6244175;22;20007;-71
2023/07/26 00:49:44;;;;;;;2.50;1.90;;;15.00;99.90;;;;;;6271268;22;20016;-71
2023/07/26 00:52:12;;;;;;;4.82;2.25;;;15.00;99.90;;;;;;6269264;22;20106;-70
2023/07/26 00:54:37;;;;;;;6.85;2.10;;;15.00;99.90;;;;;;6270965;22;20026;-71
2023/07/26 00:57:04;;;;;;;3.30;2.30;;;15.00;99.90;;;;;;6243660;22;20043;-71
2023/07/26 00:59:30;;;;;;;3.42;2.25;;;15.00;99.90;;;;;;6269501;22;20424;-71
2023/07/26 01:01:56;;;;;;;4.32;2.30;;;15.00;99.90;;;;;;6271348;22;20020;-71
2023/07/26 01:04:21;;;;;;;3.92;2.30;;;15.00;99.90;;;;;;6269234;22;20024;-71
2023/07/26 01:06:58;;;;;;;5.43;2.33;;;14.90;99.90;;;;;;6271262;22;20010;-71
2023/07/26 01:09:37;;;;;;;5.28;2.35;;;14.90;99.90;;;;;;6269465;22;20570;-71
2023/07/26 01:12:09;;;;;;;4.70;2.03;;;14.90;99.90;;;;;;6271403;22;20016;-71
2023/07/26 01:15:00;;;;;;;4.65;2.28;;;14.90;99.90;;;;;;6269642;22;20027;-71
2023/07/26 01:17:26;;;;;;;3.25;2.33;;;14.90;99.90;;;;;;6269678;22;20055;-71
2023/07/26 01:19:54;;;;;;;2.58;2.15;;;14.90;99.90;;;;;;6244042;22;20023;-71
2023/07/26 01:22:20;;;;;;;7.65;2.90;;;14.90;99.90;;;;;;6269771;22;20098;-71
2023/07/26 01:24:46;;;;;;;5.30;2.90;;;14.90;99.90;;;;;;6243638;22;20070;-71
2023/07/26 01:27:14;;;;;;;4.72;2.67;;;14.80;99.90;;;;;;6271593;22;20031;-71
2023/07/26 01:29:40;;;;;;;4.45;2.50;;;14.80;99.90;;;;;;6243662;22;20027;-70
2023/07/26 01:32:10;;;;;;;4.28;2.35;;;14.80;99.90;;;;;;6269330;22;20098;-71
2023/07/26 01:34:37;;;;;;;3.10;2.40;;;14.80;99.90;;;;;;6271012;22;20474;-71
2023/07/26 01:37:03;;;;;;;6.57;3.00;;;14.80;99.90;;;;;;6269332;22;20073;-70
2023/07/26 01:39:29;;;;;;;4.40;2.90;;;14.80;99.90;;;;;;6269052;22;20028;-71
2023/07/26 01:41:55;;;;;;;5.85;3.15;;;14.80;99.90;;;;;;6244676;22;20051;-71
2023/07/26 01:44:21;;;;;;;5.07;2.67;;;14.80;99.90;;;;;;6272916;22;20039;-71
2023/07/26 01:46:47;;;;;;;5.30;3.25;;;14.80;99.90;;;;;;6272813;22;20011;-71
2023/07/26 01:49:13;;;;;;;4.07;2.63;;;14.80;99.90;;;;;;6271258;22;20094;-71
2023/07/26 01:51:39;;;;;;;8.10;3.28;;;14.80;99.90;;;;;;6245628;22;20418;-71
2023/07/26 01:54:08;;;;;;;4.63;2.70;;;14.80;99.90;;;;;;6271328;22;20020;-71
2023/07/26 01:56:34;;;;;;;7.70;3.33;;;14.80;99.90;;;;;;6271135;22;20020;-71
2023/07/26 01:59:00;;;;;;;5.50;3.47;;;14.70;99.90;;;;;;6270801;22;20319;-71
2023/07/26 02:01:25;;;;;;;6.15;3.15;;;14.70;99.90;;;;;;6271112;22;20026;-71
2023/07/26 02:03:51;;;;;;;10.02;3.35;;;14.60;99.90;;;;;;6270993;22;20042;-71
2023/07/26 02:06:17;;;;;;;6.35;3.17;;;14.60;99.90;;;;;;6272810;22;20073;-71
2023/07/26 02:08:42;;;;;;;4.05;3.30;;;14.60;99.90;;;;;;6272600;22;20350;-71
2023/07/26 02:11:08;;;;;;;6.25;3.53;;;14.60;99.90;;;;;;6245616;22;20035;-71
2023/07/26 02:13:34;;;;;;;4.53;3.35;;;14.60;99.90;;;;;;6270931;22;20028;-70
2023/07/26 02:16:00;;;;;;;3.53;2.88;;;14.60;99.90;;;;;;6270981;22;20035;-71
2023/07/26 02:18:26;;;;;;;4.72;3.05;;;14.50;99.90;;;;;;6272686;22;20020;-71
2023/07/26 02:20:51;;;;;;;5.90;3.10;;;14.50;99.90;;;;;;6270657;22;20116;-71
2023/07/26 02:23:17;;;;;;;3.60;3.15;;;14.50;99.90;;;;;;6271113;22;20046;-71
2023/07/26 02:25:44;;;;;;;5.80;4.28;;;14.50;99.90;;;;;;6244850;22;20025;-71
2023/07/26 02:28:10;;;;;;;4.78;3.80;;;14.40;99.90;;;;;;6270732;22;20027;-71
2023/07/26 02:30:36;;;;;;;8.77;3.70;;;14.40;99.90;;;;;;6270590;22;20406;-71
2023/07/26 02:33:01;;;;;;;8.20;3.22;;;14.40;99.90;;;;;;6270617;22;20027;-71
2023/07/26 02:35:27;;;;;;;4.80;3.72;;;14.40;99.90;;;;;;6245585;22;20023;-70
2023/07/26 02:37:53;;;;;;;4.68;3.38;;;14.40;99.90;;;;;;6270586;22;20080;-71
2023/07/26 02:40:19;;;;;;;4.28;3.38;;;14.40;99.90;;;;;;6245180;22;20102;-71
2023/07/26 02:42:44;;;;;;;4.93;3.60;;;14.30;99.90;;;;;;6270798;22;20128;-71
2023/07/26 02:45:10;;;;;;;6.18;3.90;;;14.30;99.90;;;;;;6270678;22;20023;-72
2023/07/26 02:47:36;;;;;;;4.18;3.45;;;14.30;99.90;;;;;;6272197;22;20019;-71
2023/07/26 02:50:04;;;;;;;3.95;3.55;;;14.30;99.90;;;;;;6270746;22;20027;-71
2023/07/26 02:52:30;;;;;;;5.63;3.95;;;14.30;99.90;;;;;;6272687;22;20019;-70
2023/07/26 02:54:57;;;;;;;6.93;3.78;;;14.30;99.90;;;;;;6274054;22;20082;-71
2023/07/26 02:57:22;;;;;;;3.58;3.25;;;14.20;99.90;;;;;;6274681;22;20090;-71
2023/07/26 02:59:48;;;;;;;6.25;3.72;;;14.20;99.90;;;;;;6271246;22;20372;-71
2023/07/26 03:02:14;;;;;;;4.47;3.75;;;14.20;99.90;;;;;;6272236;22;20123;-71
2023/07/26 03:04:41;;;;;;;6.10;3.53;;;14.10;99.90;;;;;;6272435;22;20097;-71
2023/07/26 03:07:06;;;;;;;5.15;3.30;;;14.10;99.90;;;;;;6272298;22;20007;-71
2023/07/26 03:09:32;;;;;;;7.05;3.65;;;14.10;99.90;;;;;;6272029;22;20027;-71
2023/07/26 03:11:58;;;;;;;4.28;3.33;;;14.10;99.90;;;;;;6272150;22;20047;-71
2023/07/26 03:14:23;;;;;;;5.55;3.45;;;14.00;99.90;;;;;;6270216;22;20016;-71
2023/07/26 03:16:49;;;;;;;6.05;3.40;;;14.10;99.90;;;;;;6270179;22;20030;-71
2023/07/26 03:19:15;;;;;;;3.40;3.10;;;14.10;99.90;;;;;;6272033;22;20023;-71
2023/07/26 03:21:41;;;;;;;5.70;3.22;;;14.10;99.90;;;;;;6271743;22;20028;-72
2023/07/26 03:24:06;;;;;;;11.23;3.15;;;14.00;99.90;;;;;;6245051;22;20015;-71
2023/07/26 03:26:32;;;;;;;3.78;2.92;;;14.00;99.90;;;;;;6244696;22;20016;-71
2023/07/26 03:28:58;;;;;;;3.88;3.17;;;14.00;99.90;;;;;;6219584;22;20020;-72
2023/07/26 03:31:24;;;;;;;4.30;3.33;;;14.00;99.90;;;;;;6272285;22;20087;-72
2023/07/26 03:33:52;;;;;;;5.28;3.30;;;14.00;99.90;;;;;;6219325;22;20023;-71
2023/07/26 03:36:17;;;;;;;3.15;2.63;;;13.90;99.90;;;;;;6244300;22;20108;-71
2023/07/26 03:38:43;;;;;;;4.80;3.13;;;13.90;99.90;;;;;;6244427;22;20384;-71
2023/07/26 03:41:09;;;;;;;8.63;3.45;;;13.90;99.90;;;;;;6272272;22;20020;-71
2023/07/26 03:43:35;;;;;;;3.50;3.05;;;13.90;99.90;;;;;;6244681;22;20030;-71
2023/07/26 03:46:00;;;;;;;5.65;2.80;;;13.90;99.90;;;;;;6272196;22;20031;-71
2023/07/26 03:48:27;;;;;;;4.53;3.30;;;13.90;99.90;;;;;;6219395;22;20055;-71
2023/07/26 03:50:53;;;;;;;4.65;3.00;;;13.90;99.90;;;;;;6271883;22;20332;-71
2023/07/26 03:53:19;;;;;;;6.75;3.17;;;13.80;99.90;;;;;;6244705;22;20096;-71
2023/07/26 03:55:44;;;;;;;5.72;3.10;;;13.80;99.90;;;;;;6244572;22;20015;-71
2023/07/26 03:58:10;;;;;;;3.53;2.92;;;13.90;99.90;;;;;;6271688;22;20347;-71
2023/07/26 04:00:36;;;;;;;5.28;3.20;;;13.90;99.90;;;;;;6244330;22;20066;-71
2023/07/26 04:03:02;;;;;;;4.50;3.40;;;13.90;99.90;;;;;;6244522;22;20114;-71
2023/07/26 04:05:28;;;;;;;4.13;3.38;;;13.90;99.90;;;;;;6218912;22;20482;-71
2023/07/26 04:07:54;;;;;;;3.42;3.13;;;13.90;99.90;;;;;;6244217;22;20356;-71
2023/07/26 04:10:19;;;;;;;4.30;3.00;;;13.90;99.90;;;;;;6244674;22;20557;-71
2023/07/26 04:12:45;;;;;;;4.10;2.72;;;13.90;99.90;;;;;;6271645;22;20020;-71
2023/07/26 04:15:11;;;;;;;4.35;2.90;;;13.90;99.90;;;;;;6244400;22;20020;-71
2023/07/26 04:17:37;;;;;;;3.58;2.72;;;13.90;99.90;;;;;;6271357;22;20065;-71
2023/07/26 04:20:03;;;;;;;4.20;2.90;;;13.90;99.90;;;;;;6271313;22;20081;-71
2023/07/26 04:22:28;;;;;;;5.20;3.22;;;13.90;99.90;;;;;;6244181;22;20055;-71
2023/07/26 04:24:54;;;;;;;3.78;3.20;;;14.00;99.90;;;;;;6244185;22;20031;-71
2023/07/26 04:27:20;;;;;;;4.75;3.25;;;14.00;99.90;;;;;;6244491;22;20027;-72
2023/07/26 04:29:46;;;;;;;5.13;3.00;;;14.00;99.90;;;;;;6271699;22;20051;-71
2023/07/26 04:32:12;;;;;;;4.72;2.88;;;14.10;99.90;;;;;;6271621;22;20031;-72
2023/07/26 04:34:37;;;;;;;6.53;3.10;;;14.10;99.90;;;;;;6243814;22;20012;-71
2023/07/26 04:37:03;;;;;;;6.82;3.10;;;14.10;99.90;;;;;;6271413;22;20390;-71
2023/07/26 04:39:34;;;;;;;4.57;3.08;;;14.10;99.90;;;;;;6244098;22;20034;-71
2023/07/26 04:42:00;;;;;;;4.22;2.97;;;14.20;99.90;;;;;;6271255;22;20020;-71
2023/07/26 04:44:26;;;;;;;3.90;3.50;;;14.20;99.90;;;;;;6270835;22;20106;-70
2023/07/26 04:46:52;;;;;;;4.13;3.00;;;14.20;99.90;;;;;;6271416;22;20463;-71
2023/07/26 04:49:17;;;;;;;4.32;3.05;;;14.20;99.90;;;;;;6271388;22;20020;-71
2023/07/26 04:51:43;;;;;;;5.78;2.85;;;14.20;99.90;;;;;;6244437;22;20336;-71
2023/07/26 04:54:09;;;;;;;4.57;2.67;;;14.20;99.90;;;;;;6271230;22;20026;-71
2023/07/26 04:56:34;;;;;;;3.92;2.92;;;14.20;99.90;;;;;;6271778;22;20018;-71
2023/07/26 04:59:00;;;;;;;3.97;2.97;;;14.10;99.90;;;;;;6271617;22;20451;-70
2023/07/26 05:01:29;;;;;;;4.93;3.30;;;14.10;99.90;;;;;;6219498;22;20015;-71
2023/07/26 05:03:54;;;;;;;5.70;3.20;;;14.10;99.90;;;;;;6243992;22;20359;-71
2023/07/26 05:06:20;;;;;;;4.72;3.25;;;14.20;99.90;;;;;;6243898;22;20015;-71
2023/07/26 05:08:47;;;;;;;5.00;3.13;;;14.10;99.90;;;;;;6244057;22;20032;-71
2023/07/26 05:11:14;;;;;;;4.47;3.47;;;14.10;99.90;;;;;;6271489;22;20026;-71
2023/07/26 05:13:40;;;;;;;4.55;3.40;;;14.10;99.90;;;;;;6271995;22;20340;-71
2023/07/26 05:16:05;;;;;;;3.85;3.45;;;14.10;99.90;;;;;;6244571;22;20026;-71
2023/07/26 05:18:31;;;;;;;5.55;3.58;;;14.10;99.90;;;;;;6245785;22;20059;-71
2023/07/26 05:20:57;;;;;;;4.85;3.13;;;14.10;99.90;;;;;;6252609;22;20019;-71
2023/07/26 05:23:22;;;;;;;4.10;3.22;;;14.10;99.90;;;;;;6271519;22;20078;-71
2023/07/26 05:25:48;;;;;;;4.45;3.05;;;14.20;99.90;;;;;;6272968;22;20019;-71
2023/07/26 05:28:14;;;;;;;4.70;3.92;;;14.10;99.90;;;;;;6271603;22;20051;-71
2023/07/26 05:30:41;;;;;;;4.45;3.20;;;14.10;99.90;;;;;;6271190;22;20085;-71
2023/07/26 05:33:07;;;;;;;7.90;3.28;;;14.20;99.90;;;;;;6273064;22;20113;-72
2023/07/26 05:35:33;;;;;;;6.57;3.55;;;14.20;99.90;;;;;;6273220;22;20027;-71
2023/07/26 05:37:59;;;;;;;4.38;3.20;;;14.20;99.90;;;;;;6271706;22;20019;-71
2023/07/26 05:40:25;;;;;;;10.18;3.83;;;14.20;99.90;;;;;;6271253;22;20019;-71
2023/07/26 05:42:51;;;;;;;4.78;3.70;;;14.30;99.90;;;;;;6273123;22;20022;-71
2023/07/26 05:45:16;;;;;;;4.90;3.70;;;14.30;99.90;;;;;;6271388;22;20023;-72
2023/07/26 05:47:43;;;;;;;5.90;3.55;;;14.40;99.90;;;;;;6272865;22;20019;-71
2023/07/26 05:50:10;;;;;;;8.50;3.50;;;14.50;99.90;;;;;;6270942;22;20467;-71
2023/07/26 05:52:40;;;;;;;4.78;3.58;;;14.50;99.90;;;;;;6272186;22;20463;-70
2023/07/26 05:55:06;;;;;;;6.32;3.80;;;14.50;99.90;;;;;;6277561;22;20073;-71
2023/07/26 05:57:32;;;;;;;4.70;3.70;;;14.60;99.90;;;;;;6275337;22;20034;-71
2023/07/26 05:59:58;;;;;;;4.90;3.50;;;14.60;99.90;;;;;;6275049;22;20059;-70
2023/07/26 06:02:24;;;;;;;6.63;3.42;;;14.60;99.90;;;;;;6275408;22;20096;-71
2023/07/26 06:04:50;;;;;;;6.70;3.53;;;14.70;99.90;;;;;;6277328;22;20082;-71
2023/07/26 06:07:16;;;;;;;8.43;3.55;;;14.70;99.90;;;;;;6277160;22;20011;-71
2023/07/26 06:09:45;;;;;;;7.13;3.72;;;14.70;99.90;;;;;;6275700;22;20028;-71
2023/07/26 06:12:11;;;;;;;5.72;3.35;;;14.70;99.90;;;;;;6275195;22;20023;-71
2023/07/26 06:14:37;;;;;;;4.90;3.42;;;14.70;99.90;;;;;;6272654;22;20019;-71
2023/07/26 06:17:04;;;;;;;6.60;4.00;;;14.70;99.90;;;;;;6272978;22;20341;-70
2023/07/26 06:19:30;;;;;;;5.57;3.55;;;14.70;99.90;;;;;;6273040;22;20031;-70
2023/07/26 06:21:56;;;;;;;6.50;3.65;;;14.80;99.90;;;;;;6270672;22;20020;-70
2023/07/26 06:24:26;;;;;;;5.28;3.88;;;14.70;99.90;;;;;;6272612;22;20517;-71
2023/07/26 06:26:52;;;;;;;6.22;4.20;;;14.70;99.90;;;;;;6272794;22;20061;-70
2023/07/26 06:29:18;;;;;;;6.20;4.00;;;14.80;99.90;;;;;;6269866;22;20024;-71
2023/07/26 06:31:44;;;;;;;5.35;3.85;;;14.80;99.90;;;;;;6272857;22;20019;-70
2023/07/26 06:34:10;;;;;;;5.53;3.85;;;14.70;99.90;;;;;;6272899;22;20065;-70
2023/07/26 06:36:35;;;;;;;6.75;4.30;;;14.70;99.90;;;;;;6272652;22;20495;-71
2023/07/26 06:39:01;;;;;;;6.50;4.28;;;14.70;99.90;;;;;;6272534;22;20443;-70
2023/07/26 06:41:27;;;;;;;5.85;4.07;;;14.70;99.90;;;;;;6270679;22;20019;-69
2023/07/26 06:43:56;;;;;;;7.50;4.22;;;14.60;99.90;;;;;;6270616;22;20084;-71
2023/07/26 06:46:22;;;;;;;4.65;3.72;;;14.70;99.90;;;;;;6271422;22;20084;-71
2023/07/26 06:48:47;;;;;;;6.97;4.05;;;14.70;99.90;;;;;;6244789;22;20022;-71
2023/07/26 06:51:13;;;;;;;7.75;4.18;;;14.70;99.90;;;;;;6272511;22;20012;-68
2023/07/26 06:53:39;;;;;;;5.63;4.10;;;14.70;99.90;;;;;;6272455;22;20467;-69
2023/07/26 06:56:05;;;;;;;7.38;4.43;;;14.70;99.90;;;;;;6270533;22;20024;-68
2023/07/26 06:58:31;;;;;;;5.75;3.90;;;14.80;99.90;;;;;;6269911;22;20031;-68
2023/07/26 07:00:58;;;;;;;6.72;3.97;;;15.00;99.90;;;;;;6271594;22;20054;-68
2023/07/26 07:03:24;;;;;;;7.00;4.30;;;14.90;99.90;;;;;;6271792;22;20051;-68
2023/07/26 07:05:50;;;;;;;6.82;3.67;;;14.80;99.90;;;;;;6272251;22;20020;-68
2023/07/26 07:08:15;;;;;;;5.25;4.28;;;14.90;99.90;;;;;;6271885;22;20035;-68
2023/07/26 07:10:41;;;;;;;10.57;4.68;;;14.90;99.90;;;;;;6271874;22;20028;-69
2023/07/26 07:13:07;;;;;;;6.40;4.18;;;15.00;99.90;;;;;;6269661;22;20019;-68
2023/07/26 07:15:33;;;;;;;4.70;4.22;;;15.10;99.90;;;;;;6271975;22;20023;-68
2023/07/26 07:17:58;;;;;;;4.75;4.20;;;15.20;99.90;;;;;;6271906;22;20329;-68
2023/07/26 07:20:24;;;;;;;5.30;4.22;;;15.10;99.90;;;;;;6271982;22;20077;-68
2023/07/26 07:22:54;;;;;;;8.13;4.60;;;15.10;99.90;;;;;;6244818;22;20019;-69
2023/07/26 07:25:19;;;;;;;8.70;4.30;;;15.10;99.90;;;;;;6271706;22;20030;-68
2023/07/26 07:27:45;;;;;;;8.13;4.68;;;15.10;99.90;;;;;;6272084;22;20015;-68
2023/07/26 07:30:13;;;;;;;6.43;4.80;;;15.10;99.90;;;;;;6245007;22;20034;-70
2023/07/26 07:32:38;;;;;;;6.88;4.78;;;15.00;99.90;;;;;;6272381;22;20016;-68
2023/07/26 07:35:06;;;;;;;9.10;4.43;;;15.00;99.90;;;;;;6273880;22;20076;-70
2023/07/26 07:37:31;;;;;;;9.57;5.13;;;15.00;99.90;;;;;;6272231;22;20026;-70
2023/07/26 07:39:57;;;;;;;8.68;4.80;;;15.00;99.90;;;;;;6271873;22;20553;-70
2023/07/26 07:42:23;;;;;;;9.80;5.32;;;15.00;99.90;;;;;;6271740;22;20018;-69
2023/07/26 07:44:49;;;;;;;5.70;4.70;;;15.00;99.90;;;;;;6244783;22;20058;-70
2023/07/26 07:47:15;;;;;;;7.63;4.65;;;15.00;99.90;;;;;;6244450;22;20026;-70
2023/07/26 07:49:41;;;;;;;8.68;5.10;;;15.00;99.90;;;;;;6271946;22;20030;-69
2023/07/26 07:52:07;;;;;;;7.55;5.78;;;15.00;99.90;;;;;;6271846;22;20102;-68
2023/07/26 07:54:33;;;;;;;9.48;5.20;;;15.00;99.90;;;;;;6272325;22;20012;-68
2023/07/26 07:56:58;;;;;;;8.35;4.40;;;15.00;99.90;;;;;;6271867;22;20016;-68
2023/07/26 07:59:24;;;;;;;4.15;3.25;;;15.00;99.90;;;;;;6271483;22;20019;-71
2023/07/26 08:01:50;;;;;;;4.93;2.90;;;14.90;99.90;;;;;;6244578;22;20019;-70
2023/07/26 08:04:16;;;;;;;7.30;2.67;;;15.00;99.90;;;;;;6244585;22;20031;-71
2023/07/26 08:06:41;;;;;;;6.15;2.20;;;14.80;99.90;;;;;;6271828;22;20027;-70
2023/07/26 08:09:07;;;;;;;3.50;2.00;;;14.80;99.90;;;;;;6218852;22;20027;-69
2023/07/26 08:11:33;;;;;;;3.83;1.48;;;14.60;99.90;;;;;;6270591;22;20061;-69
2023/07/26 08:13:58;;;;;;;3.08;1.40;;;14.60;99.90;;;;;;6271150;22;20085;-68
2023/07/26 08:16:24;;;;;;;5.60;1.85;;;14.70;99.90;;;;;;6271398;22;20024;-67
2023/07/26 08:18:50;;;;;;;2.60;1.58;;;14.60;99.90;;;;;;6271749;22;20015;-67
2023/07/26 08:21:16;;;;;;;2.00;1.75;;;14.60;99.90;;;;;;6271567;22;20027;-67
2023/07/26 08:23:41;;;;;;;3.65;2.33;;;14.60;99.90;;;;;;6271779;22;20089;-67
2023/07/26 08:26:09;;;;;;;6.97;3.75;;;14.70;99.90;;;;;;6271031;22;20081;-67
2023/07/26 08:28:35;;;;;;;6.28;3.95;;;14.80;99.90;;;;;;6271742;22;20100;-67
2023/07/26 08:31:01;;;;;;;7.10;4.55;;;14.90;99.90;;;;;;6271755;22;20030;-67
2023/07/26 08:33:27;;;;;;;6.28;4.22;;;15.00;99.90;;;;;;6271751;22;20016;-67
2023/07/26 08:35:53;;;;;;;6.85;3.90;;;15.20;99.90;;;;;;6271526;22;20016;-67
2023/07/26 08:38:18;;;;;;;5.80;3.33;;;15.30;99.90;;;;;;6271370;22;20023;-67
2023/07/26 08:40:49;;;;;;;7.95;3.20;;;15.40;99.90;;;;;;6271527;22;20023;-68
2023/07/26 08:43:19;;;;;;;5.07;3.22;;;15.50;99.90;;;;;;6271764;22;20021;-68
2023/07/26 08:45:46;;;;;;;4.38;2.80;;;15.60;99.90;;;;;;6243843;22;20019;-68
2023/07/26 08:48:12;;;;;;;2.88;2.38;;;15.60;99.90;;;;;;6271452;22;20024;-69
2023/07/26 08:50:41;;;;;;;2.55;1.98;;;15.70;99.90;;;;;;6271370;22;20094;-68
2023/07/26 08:53:08;;;;;;;5.80;2.45;;;15.80;99.90;;;;;;6273387;22;20011;-68
2023/07/26 08:55:35;;;;;;;2.60;2.15;;;16.00;99.90;;;;;;6273433;22;20020;-68
2023/07/26 08:58:02;;;;;;;3.25;2.10;;;16.10;99.90;;;;;;6274117;22;20020;-68
2023/07/26 09:00:28;;;;;;;4.03;1.73;;;16.30;99.90;;;;;;6274075;22;20054;-68
2023/07/26 09:02:57;;;;;;;2.10;1.50;;;16.40;99.90;;;;;;6273542;22;20020;-69
2023/07/26 09:05:23;;;;;;;1.83;1.58;;;16.60;99.90;;;;;;6273331;22;20400;-68
2023/07/26 09:07:52;;;;;;;1.80;1.58;;;16.70;99.90;;;;;;6273293;22;20019;-69
2023/07/26 09:10:31;;;;;;;4.35;2.00;;;16.80;99.90;;;;;;6246128;22;20020;-69
2023/07/26 09:13:11;;;;;;;2.53;1.52;;;17.00;99.90;;;;;;6273902;22;20011;-69
2023/07/26 09:15:41;;;;;;;2.10;1.77;;;17.10;99.90;;;;;;6220981;22;20395;-69
2023/07/26 09:18:12;;;;;;;4.68;2.20;;;17.20;99.90;;;;;;6246065;22;20023;-69
2023/07/26 09:20:38;;;;;;;2.15;1.75;;;17.30;99.90;;;;;;6273343;22;20094;-69
2023/07/26 09:23:08;;;;;;;4.90;2.55;;;17.30;99.90;;;;;;6273076;22;20022;-70
2023/07/26 09:25:45;;;;;;;4.38;2.05;;;17.20;99.90;;;;;;6273353;22;20022;-69
2023/07/26 09:28:13;;;;;;;2.33;1.80;;;17.20;99.90;;;;;;6246314;22;20102;-70
2023/07/26 09:30:41;;;;;;;2.42;2.00;;;17.30;99.90;;;;;;6246364;22;20023;-69
2023/07/26 09:33:09;;;;;;;2.10;1.83;;;17.40;99.90;;;;;;6273474;22;20018;-70
2023/07/26 09:35:49;;;;;;;3.72;2.28;;;17.50;99.90;;;;;;6273827;22;20024;-70
2023/07/26 09:38:17;;;;;;;4.75;2.70;;;17.50;99.90;;;;;;6273274;22;20084;-69
2023/07/26 09:40:44;;;;;;;5.53;3.10;;;17.60;99.90;;;;;;6273155;22;20076;-70
2023/07/26 09:43:09;;;;;;;4.13;2.85;;;17.70;99.90;;;;;;6273610;22;20379;-70
2023/07/26 09:45:36;;;;;;;4.22;2.75;;;17.70;99.90;;;;;;6245766;22;20023;-70
2023/07/26 09:48:14;;;;;;;5.13;3.00;;;17.80;99.90;;;;;;6245909;22;20028;-70
2023/07/26 09:50:43;;;;;;;3.90;3.08;;;17.70;99.90;;;;;;6273311;22;20024;-70
2023/07/26 09:53:11;;;;;;;5.07;2.60;;;17.70;99.90;;;;;;6273123;22;20070;-70
2023/07/26 09:55:37;;;;;;;5.32;2.70;;;17.70;99.90;;;;;;6273320;22;20012;-70
2023/07/26 09:58:04;;;;;;;4.38;2.58;;;17.80;99.90;;;;;;6245977;22;20012;-70
2023/07/26 10:00:32;;;;;;;6.82;3.30;;;17.90;99.90;;;;;;6245702;22;20027;-70
2023/07/26 10:03:03;;;;;;;4.82;2.97;;;18.00;99.90;;;;;;6273014;22;20165;-70
2023/07/26 10:05:45;;;;;;;2.90;2.43;;;18.00;99.90;;;;;;6273033;22;20020;-70
2023/07/26 10:08:12;;;;;;;4.07;2.47;;;18.00;99.90;;;;;;6272951;22;20250;-70
2023/07/26 10:10:42;;;;;;;5.13;2.97;;;18.20;99.90;;;;;;6272465;22;20321;-70
2023/07/26 10:13:10;;;;;;;4.53;2.70;;;18.30;99.90;;;;;;6245551;22;20022;-70
2023/07/26 10:15:36;;;;;;;5.25;2.90;;;18.40;99.90;;;;;;6273042;22;20016;-71
2023/07/26 10:18:02;;;;;;;3.53;2.60;;;18.50;99.90;;;;;;6245639;22;20432;-70
2023/07/26 10:20:28;;;;;;;3.10;2.22;;;18.50;99.90;;;;;;6272495;22;20020;-70
2023/07/26 10:23:01;;;;;;;4.28;2.50;;;18.60;99.90;;;;;;6272857;22;20454;-70
2023/07/26 10:25:28;;;;;;;4.03;2.13;;;18.60;99.90;;;;;;6272348;22;20030;-70
2023/07/26 10:27:54;;;;;;;4.03;2.40;;;18.70;99.90;;;;;;6245361;22;20435;-70
2023/07/26 10:30:20;;;;;;;5.13;2.42;;;18.70;99.90;;;;;;6272853;22;20016;-70
2023/07/26 10:32:50;;;;;;;3.83;2.45;;;18.70;99.90;;;;;;6245340;22;20027;-70
2023/07/26 10:35:34;;;;;;;5.15;2.70;;;18.70;99.90;;;;;;6273020;22;20382;-70
2023/07/26 10:38:03;;;;;;;3.25;2.67;;;18.80;99.90;;;;;;6272899;22;20309;-70
2023/07/26 10:40:37;;;;;;;3.55;2.35;;;18.90;99.90;;;;;;6245322;22;20012;-70
2023/07/26 10:43:39;;;;;;;3.78;2.50;;;19.00;99.90;;;;;;6219990;22;20535;-70
2023/07/26 10:46:10;;;;;;;4.07;2.53;;;18.70;99.90;;;;;;6272549;22;20016;-70
2023/07/26 10:48:38;;;;;;;3.85;2.50;;;18.70;99.90;;;;;;6220028;22;20011;-70
2023/07/26 10:51:31;;;;;;;6.60;3.03;;;18.80;99.90;;;;;;6272171;22;20019;-70
2023/07/26 10:53:58;;;;;;;;;;;19.00;99.90;;;;;;6272951;22;20509;-70
2023/07/26 10:56:24;;;;;;;4.07;2.47;;;19.00;99.90;;;;;;6272260;22;19965;-70
2023/07/26 10:58:55;;;;;;;4.45;2.78;;;19.10;99.90;;;;;;6272377;22;20535;-70
2023/07/26 11:01:31;;;;;;;4.22;2.40;;;19.10;99.90;;;;;;6244957;22;20522;-70
2023/07/26 11:03:58;;;;;;;5.55;2.50;;;19.20;99.90;;;;;;6272303;22;20440;-71
2023/07/26 11:06:51;;;;;;;2.40;2.20;;;19.20;99.90;;;;;;6272117;22;20352;-70
2023/07/26 11:09:29;;;;;;;4.78;2.50;;;19.20;99.90;;;;;;6245111;22;20016;-70
2023/07/26 11:12:23;;;;;;;4.65;2.35;;;19.40;99.90;;;;;;6244563;22;20030;-71
2023/07/26 11:14:49;;;;;;;4.20;2.10;;;19.60;99.90;;;;;;6244714;22;20019;-71
2023/07/26 11:17:15;;;;;;;3.13;1.88;;;19.60;99.90;;;;;;6272003;22;20018;-70
2023/07/26 11:19:49;;;;;;;4.05;2.05;;;19.70;99.90;;;;;;6272181;22;20099;-71
2023/07/26 11:22:15;;;;;;;2.92;2.00;;;19.70;99.90;;;;;;6271951;22;20557;-70
2023/07/26 11:24:41;;;;;;;4.25;2.15;;;19.70;99.90;;;;;;6272157;22;20024;-70
2023/07/26 11:27:07;;;;;;;5.80;2.63;;;19.80;99.90;;;;;;6244428;22;20042;-69
2023/07/26 11:29:33;;;;;;;4.35;1.60;;;19.40;99.90;;;;;;6272001;22;20024;-70
2023/07/26 11:31:59;;;;;;;3.83;1.60;;;19.10;99.90;;;;;;6271865;22;20024;-71
2023/07/26 11:34:25;;;;;;;3.78;1.63;;;18.80;99.90;;;;;;6271974;22;20043;-71
2023/07/26 11:36:51;;;;;;;2.35;1.38;;;18.50;99.90;;;;;;6272137;22;20478;-72
2023/07/26 11:39:25;;;;;;;1.55;1.20;;;18.30;99.90;;;;;;6272073;22;20065;-71
2023/07/26 11:41:52;;;;;;;2.65;1.58;;;18.30;99.90;;;;;;6271991;22;20063;-69
2023/07/26 11:44:21;;;;;;;1.75;1.52;;;18.10;99.90;;;;;;6272347;22;20050;-68
2023/07/26 11:46:48;;;;;;;1.73;1.40;;;18.00;99.90;;;;;;6272252;22;20015;-68
2023/07/26 11:49:23;;;;;;;2.63;1.73;;;18.00;99.90;;;;;;6271785;22;20599;-68
2023/07/26 11:51:50;;;;;;;7.28;2.30;;;18.00;99.90;;;;;;6271700;22;20069;-68
2023/07/26 11:54:17;;;;;;;4.03;2.78;;;18.10;99.90;;;;;;6271821;22;20668;-68
2023/07/26 11:56:43;;;;;;;6.97;2.70;;;18.30;99.90;;;;;;6244647;22;20325;-68
2023/07/26 11:59:11;;;;;;;4.18;2.03;;;18.50;99.90;;;;;;6271681;22;20451;-69
2023/07/26 12:01:37;;;;;;;3.47;2.30;;;18.50;99.90;;;;;;6271967;22;20015;-69
2023/07/26 12:04:09;;;;;;;2.92;1.98;;;18.70;99.90;;;;;;6244386;22;20395;-69
2023/07/26 12:06:36;;;;;;;2.83;1.65;;;18.70;99.90;;;;;;6244921;22;20020;-69
2023/07/26 12:09:09;;;;;;;2.47;1.52;;;18.80;99.90;;;;;;6271725;22;20467;-70
2023/07/26 12:11:41;;;;;;;2.92;1.60;;;18.90;99.90;;;;;;6271853;22;20022;-69
2023/07/26 12:14:07;;;;;;;1.88;1.67;;;18.80;99.90;;;;;;6272640;22;20090;-69
2023/07/26 12:16:34;;;;;;;1.80;1.20;;;18.90;99.90;;;;;;6244882;22;20047;-69
2023/07/26 12:19:03;;;;;;;1.70;1.38;;;18.90;99.90;;;;;;6272031;22;20030;-69
2023/07/26 12:21:30;;;;;;;4.70;1.38;;;18.80;99.90;;;;;;6273104;22;20020;-69
2023/07/26 12:23:59;;;;;;;1.90;1.23;;;18.90;99.90;;;;;;6271800;22;20440;-69
2023/07/26 12:26:29;;;;;;;1.23;1.13;;;18.90;99.90;;;;;;6271546;22;20012;-69
2023/07/26 12:28:56;;;;;;;1.90;1.27;;;19.00;99.90;;;;;;6219531;22;20031;-69
2023/07/26 12:31:30;;;;;;;3.05;1.17;;;19.00;99.90;;;;;;6271601;22;20468;-70
2023/07/26 12:34:06;;;;;;;1.83;1.45;;;19.10;99.90;;;;;;6271817;22;20019;-70
2023/07/26 12:36:41;;;;;;;2.22;1.60;;;19.10;99.90;;;;;;6244175;22;20020;-70
2023/07/26 12:39:08;;;;;;;2.60;1.60;;;19.10;99.90;;;;;;6271800;22;20020;-70
2023/07/26 12:41:39;;;;;;;2.03;1.60;;;19.10;99.90;;;;;;6271725;22;20043;-70
2023/07/26 12:44:06;;;;;;;2.20;1.50;;;19.10;99.90;;;;;;6271712;22;20114;-70
2023/07/26 12:46:33;;;;;;;1.95;1.35;;;19.10;99.90;;;;;;6243938;22;20023;-70
2023/07/26 12:48:58;;;;;;;2.78;1.38;;;19.10;99.90;;;;;;6271290;22;20016;-70